Gulf Shores, AL (36542)

5:03 AM CDT on April 27, 2017 (GMT -0500)
Shady Lagoon | | Change Station
Active Advisory: Coastal Hazard Statement Active Notice: Coastal Hazard Statement

Elev 43 ft 30.25 °N, 87.78 °W | Updated 17 seconds ago

Overcast
Overcast
75.3 °F
Feels Like 75 °F
N
13.0
Wind Variable Wind from SSW

Today
High -- | Low -- °F
--% Chance of Precip.
Yesterday
High -- | Low -- °F
Precip. -- in
Pressure 29.74 in
Visibility 10.0 miles
Clouds Overcast 800 ft
Heat Index 75 °F
Dew Point 71 °F
Humidity 88%
Rainfall 0.00 in
Snow Depth Not available.
6:11 AM 7:26 PM
New Moon, 1% visible
METAR KJKA 270955Z AUTO 18006G25KT 10SM OVC008 24/24 A2974 RMK AO2 LTG DSNT N T02380238
Pressure 29.74 in
Visibility 10.0 miles
Clouds Overcast 800 ft
Heat Index 75 °F
Dew Point 71 °F
Humidity 88%
Rainfall 0.00 in
Snow Depth Not available.
6:11 AM 7:26 PM
New Moon, 1% visible
METAR KJKA 270955Z AUTO 18006G25KT 10SM OVC008 24/24 A2974 RMK AO2 LTG DSNT N T02380238

Get Your Daily Forecast Email!

Thanks for signing up!

Be on the lookout for a verification email in your inbox.

You'll start receiving severe weather alerts in your inbox..

×

10-Day Weather Forecast

Almanac

Astronomy

Apr. 27, 2017 Rise Set
Actual Time
Civil Twilight
Nautical Twilight
Astronomical Twilight
Moon
Length of Visible Light
Length of Day
Tomorrow will be .
, % of the Moon is Illuminated

Today's Extremes

State Highs State Lows

Community

WunderPhotos

WunderBlog® & News

Nearby

Air Quality

  Air Quality AQ Index Pollutant
Not available.

Snow Depth

Station Depth Elevation

Earthquake Activity

City Distance Mag. Time & Date
Minimum magnitude displayed is 2.5.

Coastal Water Temperatures

Place Temperature

Stations

Nearby Weather Stations

Station Location Temp. Windchill Dew Point Humidity Wind Precip. Elev Updated Type
                   

Watches & Warnings

Coastal Hazard Statement
Issued: 4:05 AM CDT Apr. 27, 2017 – National Weather Service

... High rip current risk remains in effect through Friday
morning...

* impacts... frequent life-threatening rip currents are expected.
The surf is dangerous for all levels of swimmers.

Precautionary/preparedness actions...

There is a high risk of rip currents. Rip currents are life-
threatening to anyone entering the surf. Swim near a lifeguard.
If caught in a rip current remain calm. Don't fight the current.
Swim in a direction following the shoreline. If unable to escape,
face the shore and call or wave for help. If tired, float or
tread water until out of the rip current.